createdAt,value
2022-12-31T00:02:08.156Z,14.36
2022-12-31T00:04:38.130Z,14.40
2022-12-31T00:07:07.928Z,14.39
2022-12-31T00:09:37.784Z,14.36
2022-12-31T00:12:08.096Z,14.30
2022-12-31T00:14:37.995Z,14.35
2022-12-31T00:17:10.621Z,14.31
2022-12-31T00:19:40.635Z,14.27
2022-12-31T00:22:10.459Z,14.24
2022-12-31T00:24:40.313Z,14.22
2022-12-31T00:27:10.128Z,14.17
2022-12-31T00:29:39.992Z,14.24
2022-12-31T00:32:12.421Z,14.17
2022-12-31T00:34:42.377Z,14.15
2022-12-31T00:37:12.214Z,14.13
2022-12-31T00:39:42.053Z,14.20
2022-12-31T00:42:11.904Z,14.26
2022-12-31T00:44:41.772Z,14.22
2022-12-31T00:47:14.275Z,14.23
2022-12-31T00:49:44.082Z,14.17
2022-12-31T00:52:15.920Z,14.19
2022-12-31T00:54:45.728Z,14.27
2022-12-31T00:57:16.271Z,14.22
2022-12-31T00:59:46.159Z,14.32
2022-12-31T01:02:18.831Z,14.35
2022-12-31T01:04:48.752Z,14.40
2022-12-31T01:07:18.591Z,14.39
2022-12-31T01:09:48.443Z,14.34
2022-12-31T01:12:18.304Z,14.35
2022-12-31T01:14:48.170Z,14.38
2022-12-31T01:17:20.629Z,14.33
2022-12-31T01:19:50.553Z,14.36
2022-12-31T01:22:20.413Z,14.46
2022-12-31T01:24:50.299Z,14.48
2022-12-31T01:27:20.141Z,14.47
2022-12-31T01:29:50.027Z,14.45
2022-12-31T01:32:22.568Z,14.55
2022-12-31T01:34:52.450Z,14.55
2022-12-31T01:37:22.271Z,14.61
2022-12-31T01:39:52.573Z,14.68
2022-12-31T01:42:22.401Z,14.73
2022-12-31T01:44:57.789Z,14.85
2022-12-31T01:47:40.885Z,14.84
2022-12-31T01:50:16.788Z,14.79
2022-12-31T01:52:50.987Z,14.84
2022-12-31T01:55:25.791Z,14.86
2022-12-31T01:58:03.989Z,14.82
2022-12-31T02:00:34.760Z,14.87
2022-12-31T02:03:10.207Z,14.88
2022-12-31T02:05:48.886Z,14.93
2022-12-31T02:08:19.041Z,14.99
2022-12-31T02:10:48.905Z,15.12
2022-12-31T02:13:19.225Z,15.11
2022-12-31T02:16:03.177Z,15.14
2022-12-31T02:18:44.865Z,15.16
2022-12-31T02:21:47.814Z,15.07
2022-12-31T02:24:41.589Z,15.08
2022-12-31T02:27:16.119Z,15.30
2022-12-31T02:30:18.427Z,15.23
2022-12-31T02:33:10.981Z,15.31
2022-12-31T02:35:51.656Z,15.38
2022-12-31T02:38:26.198Z,15.46
2022-12-31T02:40:57.129Z,15.49
2022-12-31T02:43:27.230Z,15.46
2022-12-31T02:46:10.891Z,15.52
2022-12-31T02:48:56.503Z,15.56
2022-12-31T02:51:42.642Z,15.63
2022-12-31T02:54:29.181Z,15.63
2022-12-31T02:57:13.063Z,15.62
2022-12-31T03:00:07.236Z,15.65
2022-12-31T03:02:42.521Z,15.57
2022-12-31T03:05:18.776Z,15.52
2022-12-31T03:07:49.029Z,15.60
2022-12-31T03:10:19.580Z,15.60
2022-12-31T03:12:47.719Z,15.58
2022-12-31T03:15:23.991Z,15.66
2022-12-31T03:17:57.478Z,15.74
2022-12-31T03:20:45.843Z,15.71
2022-12-31T03:23:19.129Z,15.70
2022-12-31T03:25:47.041Z,15.73
2022-12-31T03:28:19.622Z,15.74
2022-12-31T03:30:52.097Z,15.66
2022-12-31T03:33:22.554Z,15.68
2022-12-31T03:35:56.441Z,15.71
2022-12-31T03:38:26.309Z,15.77
2022-12-31T03:40:56.163Z,15.68
2022-12-31T03:43:26.059Z,15.81
2022-12-31T03:45:59.830Z,15.88
2022-12-31T03:48:30.177Z,15.83
2022-12-31T03:51:02.591Z,15.86
2022-12-31T03:53:32.467Z,15.76
2022-12-31T03:56:02.344Z,15.75
2022-12-31T03:58:32.211Z,15.88
2022-12-31T04:01:02.147Z,15.78
2022-12-31T04:03:32.113Z,15.82
2022-12-31T04:06:04.575Z,15.87
2022-12-31T04:08:34.415Z,15.84
2022-12-31T04:11:04.584Z,15.75
2022-12-31T04:13:34.424Z,15.79
2022-12-31T04:16:04.334Z,15.79
2022-12-31T04:18:34.788Z,15.80
2022-12-31T04:21:08.511Z,15.81
2022-12-31T04:23:38.544Z,15.80
2022-12-31T04:26:08.451Z,15.81
2022-12-31T04:28:38.283Z,15.92
2022-12-31T04:31:08.455Z,15.93
2022-12-31T04:33:38.321Z,15.99
2022-12-31T04:36:11.727Z,15.99
2022-12-31T04:38:41.659Z,15.97
2022-12-31T04:41:21.123Z,15.87
2022-12-31T04:43:53.857Z,15.87
2022-12-31T04:46:25.637Z,15.93
2022-12-31T04:48:55.584Z,15.95
2022-12-31T04:51:29.494Z,15.90
2022-12-31T04:53:59.786Z,15.92
2022-12-31T04:56:30.590Z,15.87
2022-12-31T04:59:01.004Z,15.92
2022-12-31T05:01:31.238Z,15.95
2022-12-31T05:04:01.516Z,15.93
2022-12-31T05:06:34.151Z,15.84
2022-12-31T05:09:04.279Z,15.89
2022-12-31T05:11:35.719Z,15.93
2022-12-31T05:14:05.612Z,15.95
2022-12-31T05:16:35.505Z,15.87
2022-12-31T05:19:06.509Z,15.91
2022-12-31T05:21:39.199Z,16.01
2022-12-31T05:24:10.056Z,15.93
2022-12-31T05:26:39.906Z,15.87
2022-12-31T05:29:09.733Z,15.88
2022-12-31T05:31:39.558Z,15.90
2022-12-31T05:34:09.405Z,15.96
2022-12-31T05:36:41.798Z,15.92
2022-12-31T05:39:11.658Z,15.92
2022-12-31T05:41:41.474Z,15.89
2022-12-31T05:44:15.033Z,15.91
2022-12-31T05:46:44.870Z,15.90
2022-12-31T05:49:14.700Z,15.83
2022-12-31T05:51:47.470Z,15.84
2022-12-31T05:54:17.353Z,15.87
2022-12-31T05:56:47.283Z,15.80
2022-12-31T05:59:17.201Z,15.77
2022-12-31T06:01:47.121Z,15.65
2022-12-31T06:04:16.926Z,15.78
2022-12-31T06:06:49.358Z,15.71
2022-12-31T06:09:20.144Z,15.69
2022-12-31T06:11:50.196Z,15.63
2022-12-31T06:14:20.509Z,15.66
2022-12-31T06:16:50.431Z,15.62
2022-12-31T06:19:20.357Z,15.64
2022-12-31T06:21:52.902Z,15.58
2022-12-31T06:24:23.072Z,15.54
2022-12-31T06:26:52.893Z,15.58
2022-12-31T06:29:22.718Z,15.68
2022-12-31T06:31:52.547Z,15.62
2022-12-31T06:34:22.662Z,15.55
2022-12-31T06:36:55.138Z,15.63
2022-12-31T06:39:25.013Z,15.65
2022-12-31T06:41:54.872Z,15.67
2022-12-31T06:44:25.094Z,15.59
2022-12-31T06:46:55.143Z,15.64
2022-12-31T06:49:25.061Z,15.70
2022-12-31T06:51:57.561Z,15.75
2022-12-31T06:54:27.401Z,15.74
2022-12-31T06:56:57.995Z,15.73
2022-12-31T06:59:31.065Z,15.67
2022-12-31T07:02:24.372Z,15.71
2022-12-31T07:05:12.575Z,15.72
2022-12-31T07:07:59.819Z,15.71
2022-12-31T07:10:42.339Z,15.77
2022-12-31T07:13:30.996Z,15.79
2022-12-31T07:16:18.970Z,15.75
2022-12-31T07:18:55.952Z,15.72
2022-12-31T07:21:37.073Z,15.75
2022-12-31T07:24:13.464Z,15.76
2022-12-31T07:27:04.325Z,15.81
2022-12-31T07:29:48.803Z,15.76
2022-12-31T07:32:36.030Z,15.77
2022-12-31T07:35:19.220Z,15.75
2022-12-31T07:38:00.719Z,15.82
2022-12-31T07:40:52.705Z,15.80
2022-12-31T07:43:36.550Z,15.78
2022-12-31T07:46:16.503Z,15.84
2022-12-31T07:48:46.913Z,15.87
2022-12-31T07:51:17.636Z,15.88
2022-12-31T07:53:47.471Z,15.98
2022-12-31T07:56:20.071Z,15.94
2022-12-31T07:59:07.407Z,16.01
2022-12-31T08:01:49.860Z,16.10
2022-12-31T08:04:30.122Z,16.07
2022-12-31T08:07:13.722Z,16.10
2022-12-31T08:09:56.587Z,16.16
2022-12-31T08:12:34.034Z,16.21
2022-12-31T08:15:05.215Z,16.16
2022-12-31T08:17:35.457Z,16.25
2022-12-31T08:20:06.569Z,16.39
2022-12-31T08:23:02.879Z,16.41
2022-12-31T08:25:50.122Z,16.45
2022-12-31T08:28:38.128Z,16.48
2022-12-31T08:31:17.536Z,16.58
2022-12-31T08:34:02.107Z,16.57
2022-12-31T08:36:48.197Z,16.68
2022-12-31T08:39:36.392Z,16.66
2022-12-31T08:42:16.823Z,16.73
2022-12-31T08:44:59.746Z,16.77
2022-12-31T08:47:42.332Z,16.72
2022-12-31T08:50:17.878Z,16.83
2022-12-31T08:52:50.573Z,16.93
2022-12-31T08:55:22.103Z,16.96
2022-12-31T08:58:09.249Z,17.00
2022-12-31T09:00:43.575Z,17.08
2022-12-31T09:03:28.921Z,17.02
2022-12-31T09:06:09.344Z,17.13
2022-12-31T09:08:50.308Z,17.08
2022-12-31T09:11:26.332Z,17.12
2022-12-31T09:14:24.026Z,17.03
2022-12-31T09:17:06.689Z,17.10
2022-12-31T09:19:36.629Z,17.10
2022-12-31T09:22:07.140Z,17.14
2022-12-31T09:24:37.769Z,17.15
2022-12-31T09:27:18.276Z,17.23
2022-12-31T09:30:04.038Z,17.29
2022-12-31T09:32:58.581Z,17.31
2022-12-31T09:35:39.917Z,17.35
2022-12-31T09:38:21.453Z,17.39
2022-12-31T09:41:08.438Z,17.33
2022-12-31T09:44:17.228Z,17.46
2022-12-31T09:47:26.242Z,17.30
2022-12-31T09:50:29.166Z,17.35
2022-12-31T09:53:29.626Z,17.41
2022-12-31T09:56:07.072Z,17.37
2022-12-31T09:58:48.058Z,17.49
2022-12-31T10:01:41.118Z,17.56
2022-12-31T10:04:36.511Z,17.49
2022-12-31T10:07:29.079Z,17.57
2022-12-31T10:10:09.632Z,17.61
2022-12-31T10:13:09.404Z,17.69
2022-12-31T10:16:04.755Z,17.71
2022-12-31T10:18:49.426Z,17.72
2022-12-31T10:21:43.492Z,17.91
2022-12-31T10:24:58.475Z,18.03
2022-12-31T10:27:50.670Z,18.09
2022-12-31T10:30:23.499Z,18.18
2022-12-31T10:33:08.723Z,18.05
2022-12-31T10:35:45.920Z,18.21
2022-12-31T10:38:35.215Z,18.29
2022-12-31T10:41:49.783Z,18.35
2022-12-31T10:44:59.933Z,18.42
2022-12-31T10:48:02.197Z,18.46
2022-12-31T10:51:05.643Z,18.46
2022-12-31T10:54:15.141Z,18.54
2022-12-31T10:57:32.530Z,18.51
2022-12-31T11:00:14.282Z,18.59
2022-12-31T11:03:29.750Z,18.74
2022-12-31T11:06:40.974Z,18.67
2022-12-31T11:09:58.361Z,18.86
2022-12-31T11:12:59.886Z,18.88
2022-12-31T11:15:58.103Z,18.94
2022-12-31T11:18:42.927Z,18.92
2022-12-31T11:21:28.598Z,19.01
2022-12-31T11:24:12.816Z,19.12
2022-12-31T11:27:01.229Z,19.10
2022-12-31T11:29:51.566Z,19.14
2022-12-31T11:32:40.797Z,19.10
2022-12-31T11:35:28.342Z,19.20
2022-12-31T11:38:12.819Z,19.25
2022-12-31T11:40:54.144Z,19.20
2022-12-31T11:43:35.673Z,19.29
2022-12-31T11:46:27.641Z,19.43
2022-12-31T11:49:19.910Z,19.53
2022-12-31T11:52:13.523Z,19.46
2022-12-31T11:55:00.849Z,19.58
2022-12-31T11:57:37.628Z,19.64
2022-12-31T12:00:19.023Z,19.76
2022-12-31T12:02:51.735Z,19.77
2022-12-31T12:05:27.128Z,20.05
2022-12-31T12:07:57.314Z,20.06
2022-12-31T12:10:36.004Z,19.76
2022-12-31T12:13:16.128Z,19.70
2022-12-31T12:15:52.534Z,19.71
2022-12-31T12:18:43.011Z,19.75
2022-12-31T12:21:19.073Z,19.88
2022-12-31T12:23:59.167Z,19.91
2022-12-31T12:26:32.542Z,19.96
2022-12-31T12:29:11.128Z,20.04
2022-12-31T12:31:41.959Z,19.96
2022-12-31T12:34:26.568Z,20.14
2022-12-31T12:36:59.848Z,20.13
2022-12-31T12:39:32.618Z,20.21
2022-12-31T12:42:07.128Z,20.11
2022-12-31T12:44:38.285Z,20.23
2022-12-31T12:47:11.139Z,20.18
2022-12-31T12:49:44.460Z,20.18
2022-12-31T12:52:47.234Z,20.07
2022-12-31T12:55:28.381Z,20.09
2022-12-31T12:58:19.039Z,20.28
2022-12-31T13:01:01.476Z,20.16
2022-12-31T13:07:22.630Z,20.14
2022-12-31T13:10:15.103Z,20.02
2022-12-31T13:15:55.105Z,20.30
2022-12-31T13:18:41.288Z,20.47
2022-12-31T13:21:32.688Z,20.31
2022-12-31T13:24:15.159Z,20.36
2022-12-31T13:26:55.472Z,20.50
2022-12-31T13:29:32.723Z,20.35
2022-12-31T13:32:08.299Z,20.28
2022-12-31T13:34:44.528Z,20.32
2022-12-31T13:37:27.377Z,20.37
2022-12-31T13:40:04.480Z,20.27
2022-12-31T13:42:46.518Z,20.31
2022-12-31T13:45:25.315Z,20.08
2022-12-31T13:48:00.614Z,19.99
2022-12-31T13:50:39.132Z,20.06
2022-12-31T13:53:20.405Z,20.04
2022-12-31T13:56:02.110Z,19.99
2022-12-31T13:58:42.641Z,19.98
2022-12-31T14:01:19.143Z,19.98
2022-12-31T14:03:59.574Z,20.00
2022-12-31T14:06:37.004Z,20.05
2022-12-31T14:09:09.373Z,19.95
2022-12-31T14:12:00.983Z,19.86
2022-12-31T14:14:45.966Z,19.69
2022-12-31T14:17:27.065Z,19.50
2022-12-31T14:20:09.274Z,19.54
2022-12-31T14:22:50.347Z,19.29
2022-12-31T14:25:26.619Z,19.19
2022-12-31T14:27:59.723Z,19.14
2022-12-31T14:30:38.992Z,19.14
2022-12-31T14:33:37.429Z,19.07
2022-12-31T14:36:26.671Z,19.05
2022-12-31T14:39:20.546Z,19.03
2022-12-31T14:42:05.353Z,18.91
2022-12-31T14:44:50.971Z,18.88
2022-12-31T14:47:39.640Z,19.06
2022-12-31T14:50:15.503Z,18.85
2022-12-31T14:52:57.260Z,18.78
2022-12-31T14:55:31.190Z,18.80
2022-12-31T14:58:27.764Z,18.78
2022-12-31T15:00:58.551Z,18.80
2022-12-31T15:03:44.744Z,18.64
2022-12-31T15:06:39.170Z,18.65
2022-12-31T15:09:22.853Z,18.70
2022-12-31T15:12:18.386Z,18.56
2022-12-31T15:15:18.464Z,18.56
2022-12-31T15:18:02.729Z,18.43
2022-12-31T15:21:15.196Z,18.34
2022-12-31T15:23:46.923Z,18.27
2022-12-31T15:26:25.648Z,18.31
2022-12-31T15:29:02.685Z,18.37
2022-12-31T15:31:35.862Z,18.10
2022-12-31T15:34:08.284Z,18.12
2022-12-31T15:36:54.050Z,18.10
2022-12-31T15:39:44.584Z,18.07
2022-12-31T15:42:38.605Z,18.05
2022-12-31T15:45:18.857Z,17.95
2022-12-31T15:47:53.302Z,18.08
2022-12-31T15:50:25.793Z,18.04
2022-12-31T15:53:00.785Z,17.96
2022-12-31T15:55:37.651Z,17.92
2022-12-31T15:58:14.033Z,17.93
2022-12-31T16:01:00.101Z,17.96
2022-12-31T16:03:33.641Z,17.84
2022-12-31T16:06:07.443Z,17.90
2022-12-31T16:08:41.484Z,17.84
2022-12-31T16:11:12.955Z,17.81
2022-12-31T16:13:46.926Z,17.74
2022-12-31T16:16:25.551Z,17.74
2022-12-31T16:18:56.284Z,17.52
2022-12-31T16:21:32.797Z,17.64
2022-12-31T16:24:07.884Z,17.45
2022-12-31T16:26:46.967Z,17.52
2022-12-31T16:29:18.937Z,17.52
2022-12-31T16:31:51.493Z,17.48
2022-12-31T16:34:24.130Z,17.47
2022-12-31T16:37:02.300Z,17.54
2022-12-31T16:39:37.541Z,17.62
2022-12-31T16:42:19.444Z,17.53
2022-12-31T16:44:50.236Z,17.42
2022-12-31T16:47:25.201Z,17.35
2022-12-31T16:50:04.468Z,17.34
2022-12-31T16:52:39.648Z,17.40
2022-12-31T16:55:20.255Z,17.37
2022-12-31T16:57:55.947Z,17.27
2022-12-31T17:00:29.669Z,17.37
2022-12-31T17:03:10.231Z,17.36
2022-12-31T17:06:04.838Z,17.42
2022-12-31T17:08:45.092Z,17.33
2022-12-31T17:11:34.368Z,17.37
2022-12-31T17:14:15.470Z,17.31
2022-12-31T17:17:03.201Z,17.44
2022-12-31T17:19:46.426Z,17.36
2022-12-31T17:22:34.259Z,17.30
2022-12-31T17:25:08.120Z,17.29
2022-12-31T17:27:40.808Z,17.25
2022-12-31T17:30:41.167Z,17.26
2022-12-31T17:33:31.359Z,17.25
2022-12-31T17:36:24.806Z,17.24
2022-12-31T17:38:54.805Z,17.32
2022-12-31T17:41:30.257Z,17.20
2022-12-31T17:44:05.644Z,17.15
2022-12-31T17:46:45.493Z,17.17
2022-12-31T17:49:22.133Z,17.17
2022-12-31T17:51:52.586Z,17.25
2022-12-31T17:54:28.747Z,17.26
2022-12-31T18:08:01.237Z,17.04
2022-12-31T18:10:37.457Z,17.08
2022-12-31T18:13:10.905Z,17.01
2022-12-31T18:15:43.624Z,17.05
2022-12-31T18:18:25.350Z,17.01
2022-12-31T18:20:59.182Z,17.02
2022-12-31T18:23:31.937Z,16.94
2022-12-31T18:26:01.803Z,16.91
2022-12-31T18:28:31.985Z,16.97
2022-12-31T18:31:04.598Z,16.90
2022-12-31T18:33:34.610Z,16.85
2022-12-31T18:36:09.145Z,16.80
2022-12-31T18:38:40.803Z,16.85
2022-12-31T18:41:19.537Z,16.88
2022-12-31T18:43:50.260Z,16.82
2022-12-31T18:46:25.539Z,16.80
2022-12-31T18:48:55.461Z,16.64
2022-12-31T18:51:32.157Z,16.61
2022-12-31T18:54:02.594Z,16.63
2022-12-31T18:56:32.608Z,16.60
2022-12-31T18:59:02.594Z,16.56
2022-12-31T19:01:37.634Z,16.64
2022-12-31T19:04:18.717Z,16.62
2022-12-31T19:06:52.402Z,16.63
2022-12-31T19:12:15.622Z,16.72
2022-12-31T19:14:45.980Z,16.88
2022-12-31T19:17:18.519Z,16.86
2022-12-31T19:19:48.367Z,16.88
2022-12-31T19:22:18.480Z,16.88
2022-12-31T19:24:48.348Z,16.85
2022-12-31T19:27:18.308Z,16.89
2022-12-31T19:29:48.150Z,16.94
2022-12-31T19:32:20.773Z,16.91
2022-12-31T19:34:50.648Z,16.88
2022-12-31T19:37:20.500Z,16.84
2022-12-31T19:39:51.506Z,16.82
2022-12-31T19:42:21.559Z,16.79
2022-12-31T19:44:51.440Z,16.77
2022-12-31T19:47:23.955Z,16.75
2022-12-31T19:50:15.436Z,16.73
2022-12-31T19:52:46.948Z,16.62
2022-12-31T19:55:19.435Z,16.63
2022-12-31T19:57:49.901Z,16.57
2022-12-31T20:00:21.553Z,16.52
2022-12-31T20:02:54.182Z,16.55
2022-12-31T20:05:24.276Z,16.58
2022-12-31T20:07:54.169Z,16.51
2022-12-31T20:10:24.128Z,16.45
2022-12-31T20:12:53.990Z,16.47
2022-12-31T20:15:23.882Z,16.44
2022-12-31T20:17:57.563Z,16.39
2022-12-31T20:20:29.128Z,16.49
2022-12-31T20:22:59.800Z,16.41
2022-12-31T20:25:29.709Z,16.39
2022-12-31T20:27:59.621Z,16.46
2022-12-31T20:30:29.516Z,16.45
2022-12-31T20:33:02.022Z,16.37
2022-12-31T20:35:31.836Z,16.36
2022-12-31T20:38:01.800Z,16.25
2022-12-31T20:40:31.710Z,16.27
2022-12-31T20:43:01.649Z,16.17
2022-12-31T20:45:31.590Z,16.17
2022-12-31T20:48:04.061Z,16.09
2022-12-31T20:50:33.906Z,16.20
2022-12-31T20:53:03.889Z,16.12
2022-12-31T20:55:33.772Z,16.09
2022-12-31T20:58:04.250Z,16.10
2022-12-31T21:00:35.154Z,16.12
2022-12-31T21:03:23.787Z,16.12
2022-12-31T21:05:57.906Z,16.10
2022-12-31T21:08:34.344Z,16.13
2022-12-31T21:11:25.203Z,16.16
2022-12-31T21:13:52.778Z,16.20
2022-12-31T21:16:22.828Z,16.24
2022-12-31T21:18:55.518Z,16.32
2022-12-31T21:21:26.462Z,16.35
2022-12-31T21:23:56.440Z,16.38
2022-12-31T21:26:26.290Z,16.41
2022-12-31T21:28:56.401Z,16.35
2022-12-31T21:31:26.519Z,16.45
2022-12-31T21:33:59.238Z,16.46
2022-12-31T21:36:29.210Z,16.41
2022-12-31T21:38:59.151Z,16.39
2022-12-31T21:41:41.493Z,16.25
2022-12-31T21:44:11.451Z,16.29
2022-12-31T21:47:00.879Z,16.42
2022-12-31T21:49:33.846Z,16.31
2022-12-31T21:52:16.135Z,16.31
2022-12-31T21:54:58.462Z,16.36
2022-12-31T21:57:28.352Z,16.35
2022-12-31T22:00:40.251Z,16.21
2022-12-31T22:03:13.428Z,16.19
2022-12-31T22:05:54.433Z,16.15
2022-12-31T22:08:25.656Z,16.08
2022-12-31T22:10:55.514Z,16.06
2022-12-31T22:13:26.515Z,16.06
2022-12-31T22:16:04.387Z,16.04
2022-12-31T22:18:38.859Z,16.03
2022-12-31T22:21:18.987Z,15.97
2022-12-31T22:23:50.777Z,15.97
2022-12-31T22:26:23.527Z,15.98
2022-12-31T22:28:58.992Z,15.94
2022-12-31T22:31:30.723Z,15.94
2022-12-31T22:34:02.075Z,15.96
2022-12-31T22:36:34.632Z,16.05
2022-12-31T22:39:04.500Z,16.00
2022-12-31T22:41:34.968Z,16.03
2022-12-31T22:44:05.168Z,16.20
2022-12-31T22:46:35.760Z,16.22
2022-12-31T22:49:07.421Z,16.17
2022-12-31T22:51:57.699Z,16.16
2022-12-31T22:54:28.779Z,16.16
2022-12-31T22:56:58.716Z,16.23
2022-12-31T22:59:28.714Z,16.24
2022-12-31T23:01:58.743Z,16.19
2022-12-31T23:04:28.974Z,16.24
2022-12-31T23:07:01.947Z,16.26
2022-12-31T23:09:44.495Z,16.23
2022-12-31T23:12:14.402Z,16.15
2022-12-31T23:14:56.843Z,16.23
2022-12-31T23:17:42.328Z,16.15
2022-12-31T23:20:28.781Z,16.11
2022-12-31T23:23:11.620Z,16.16
2022-12-31T23:25:44.345Z,16.05
2022-12-31T23:28:18.173Z,16.21
2022-12-31T23:30:48.187Z,16.25
2022-12-31T23:33:20.190Z,16.27
2022-12-31T23:35:50.430Z,16.32
2022-12-31T23:38:22.996Z,16.29
2022-12-31T23:40:54.236Z,16.15
2022-12-31T23:43:25.250Z,16.19
2022-12-31T23:45:56.086Z,16.19
2022-12-31T23:48:26.059Z,16.17
2022-12-31T23:50:56.026Z,16.09
2022-12-31T23:53:28.594Z,16.11
2022-12-31T23:55:58.906Z,16.09
2022-12-31T23:58:28.845Z,16.06
